createdAt,value
2023-02-18T00:01:30.523Z,10.20
2023-02-18T00:03:58.643Z,10.10
2023-02-18T00:06:28.956Z,10.10
2023-02-18T00:08:57.236Z,10.20
2023-02-18T00:11:23.816Z,10.20
2023-02-18T00:13:54.770Z,10.10
2023-02-18T00:16:22.374Z,10.10
2023-02-18T00:18:49.367Z,10.10
2023-02-18T00:21:16.438Z,10.10
2023-02-18T00:23:44.088Z,10.10
2023-02-18T00:26:16.190Z,10.10
2023-02-18T00:28:43.319Z,10.10
2023-02-18T00:31:17.433Z,10.00
2023-02-18T00:33:44.167Z,10.00
2023-02-18T00:36:14.816Z,10.00
2023-02-18T00:39:03.926Z,10.00
2023-02-18T00:41:31.552Z,9.90
2023-02-18T00:43:58.275Z,9.90
2023-02-18T00:46:25.916Z,10.00
2023-02-18T00:48:52.620Z,10.10
2023-02-18T00:51:19.624Z,10.10
2023-02-18T00:53:46.227Z,10.00
2023-02-18T00:56:13.208Z,10.00
2023-02-18T00:58:40.139Z,10.00
2023-02-18T01:01:08.380Z,10.00
2023-02-18T01:03:36.425Z,9.90
2023-02-18T01:06:03.857Z,9.80
2023-02-18T01:08:30.488Z,9.80
2023-02-18T01:10:58.873Z,9.80
2023-02-18T01:13:26.201Z,9.80
2023-02-18T01:15:53.203Z,9.80
2023-02-18T01:18:20.482Z,9.80
2023-02-18T01:20:47.468Z,9.70
2023-02-18T01:23:15.136Z,9.80
2023-02-18T01:25:42.182Z,9.80
2023-02-18T01:28:11.285Z,9.80
2023-02-18T01:30:38.123Z,9.90
2023-02-18T01:33:04.867Z,10.00
2023-02-18T01:35:31.859Z,10.00
2023-02-18T01:37:58.648Z,10.00
2023-02-18T01:40:27.306Z,10.00
2023-02-18T01:42:54.214Z,10.00
2023-02-18T01:45:38.636Z,10.00
2023-02-18T01:48:22.822Z,10.00
2023-02-18T01:51:07.341Z,10.00
2023-02-18T01:53:48.115Z,9.90
2023-02-18T01:56:30.927Z,9.90
2023-02-18T01:59:01.467Z,9.80
2023-02-18T02:01:28.722Z,9.80
2023-02-18T02:03:55.868Z,9.80
2023-02-18T02:06:24.064Z,9.80
2023-02-18T02:08:54.371Z,9.90
2023-02-18T02:11:45.778Z,9.90
2023-02-18T02:14:36.314Z,9.90
2023-02-18T02:17:04.566Z,9.90
2023-02-18T02:19:56.489Z,9.80
2023-02-18T02:22:52.448Z,9.80
2023-02-18T02:25:43.025Z,9.80
2023-02-18T02:28:46.630Z,9.90
2023-02-18T02:31:42.361Z,9.80
2023-02-18T02:34:38.982Z,9.80
2023-02-18T02:37:36.622Z,9.80
2023-02-18T02:40:28.388Z,9.80
2023-02-18T02:43:32.828Z,9.80
2023-02-18T02:46:06.774Z,9.80
2023-02-18T02:48:54.822Z,9.70
2023-02-18T02:51:35.009Z,9.60
2023-02-18T02:54:18.835Z,9.60
2023-02-18T02:56:45.692Z,9.60
2023-02-18T02:59:22.893Z,9.70
2023-02-18T03:02:08.199Z,9.70
2023-02-18T03:04:59.766Z,9.70
2023-02-18T03:07:41.698Z,9.70
2023-02-18T03:10:23.076Z,9.80
2023-02-18T03:13:31.611Z,9.80
2023-02-18T03:16:16.892Z,9.80
2023-02-18T03:19:08.184Z,9.80
2023-02-18T03:21:56.314Z,9.80
2023-02-18T03:24:38.103Z,9.70
2023-02-18T03:27:12.220Z,9.70
2023-02-18T03:29:40.630Z,9.70
2023-02-18T03:32:11.631Z,9.70
2023-02-18T03:34:42.485Z,9.70
2023-02-18T03:37:10.857Z,9.70
2023-02-18T03:39:41.898Z,9.70
2023-02-18T03:42:08.740Z,9.70
2023-02-18T03:44:35.459Z,9.70
2023-02-18T03:47:02.248Z,9.70
2023-02-18T03:49:28.849Z,9.70
2023-02-18T03:51:55.479Z,9.80
2023-02-18T03:54:22.178Z,9.80
2023-02-18T03:56:48.874Z,9.80
2023-02-18T03:59:15.487Z,9.70
2023-02-18T04:01:42.115Z,9.80
2023-02-18T04:04:08.925Z,9.80
2023-02-18T04:06:35.629Z,9.70
2023-02-18T04:09:08.576Z,9.80
2023-02-18T04:11:40.089Z,9.80
2023-02-18T04:14:07.372Z,9.80
2023-02-18T04:16:34.123Z,9.80
2023-02-18T04:19:00.762Z,9.80
2023-02-18T04:21:27.547Z,9.80
2023-02-18T04:23:54.188Z,9.80
2023-02-18T04:26:20.805Z,9.80
2023-02-18T04:28:47.444Z,9.70
2023-02-18T04:31:14.306Z,9.80
2023-02-18T04:33:41.041Z,9.70
2023-02-18T04:36:08.334Z,9.80
2023-02-18T04:38:35.155Z,9.80
2023-02-18T04:41:02.168Z,9.80
2023-02-18T04:43:28.830Z,9.80
2023-02-18T04:45:55.460Z,9.80
2023-02-18T04:48:22.106Z,9.70
2023-02-18T04:50:49.347Z,9.70
2023-02-18T04:53:16.006Z,9.70
2023-02-18T04:55:42.656Z,9.70
2023-02-18T04:58:10.753Z,9.70
2023-02-18T05:00:37.398Z,9.70
2023-02-18T05:03:04.235Z,9.70
2023-02-18T05:05:30.823Z,9.70
2023-02-18T05:07:57.437Z,9.80
2023-02-18T05:10:24.050Z,9.80
2023-02-18T05:12:50.752Z,9.70
2023-02-18T05:15:17.472Z,9.70
2023-02-18T05:17:44.213Z,9.70
2023-02-18T05:20:11.323Z,9.70
2023-02-18T05:22:38.667Z,9.70
2023-02-18T05:25:05.993Z,9.60
2023-02-18T05:27:32.601Z,9.60
2023-02-18T05:29:59.308Z,9.60
2023-02-18T05:32:26.019Z,9.60
2023-02-18T05:34:52.783Z,9.60
2023-02-18T05:37:19.482Z,9.60
2023-02-18T05:39:46.199Z,9.50
2023-02-18T05:42:12.901Z,9.50
2023-02-18T05:44:39.551Z,9.60
2023-02-18T05:47:11.362Z,9.60
2023-02-18T05:49:39.651Z,9.60
2023-02-18T05:52:07.021Z,9.50
2023-02-18T05:54:34.232Z,9.50
2023-02-18T05:57:01.505Z,9.60
2023-02-18T05:59:28.434Z,9.60
2023-02-18T06:01:55.110Z,9.70
2023-02-18T06:04:22.254Z,9.70
2023-02-18T06:06:48.960Z,9.70
2023-02-18T06:09:15.854Z,9.70
2023-02-18T06:11:42.658Z,9.60
2023-02-18T06:14:09.395Z,9.70
2023-02-18T06:16:36.046Z,9.70
2023-02-18T06:19:02.681Z,9.70
2023-02-18T06:21:29.685Z,9.60
2023-02-18T06:23:56.481Z,9.70
2023-02-18T06:26:23.463Z,9.60
2023-02-18T06:28:50.148Z,9.60
2023-02-18T06:31:16.938Z,9.60
2023-02-18T06:33:43.621Z,9.70
2023-02-18T06:36:12.378Z,9.70
2023-02-18T06:38:44.332Z,9.70
2023-02-18T06:41:12.662Z,9.60
2023-02-18T06:43:40.031Z,9.60
2023-02-18T06:46:07.172Z,9.60
2023-02-18T06:48:34.223Z,9.60
2023-02-18T06:51:00.964Z,9.60
2023-02-18T06:53:27.769Z,9.60
2023-02-18T06:55:54.428Z,9.60
2023-02-18T06:58:21.029Z,9.60
2023-02-18T07:00:47.645Z,9.60
2023-02-18T07:03:15.306Z,9.50
2023-02-18T07:05:42.643Z,9.60
2023-02-18T07:08:09.790Z,9.60
2023-02-18T07:10:36.985Z,9.60
2023-02-18T07:13:04.190Z,9.60
2023-02-18T07:15:30.925Z,9.60
2023-02-18T07:17:57.547Z,9.60
2023-02-18T07:20:24.723Z,9.60
2023-02-18T07:22:51.831Z,9.60
2023-02-18T07:25:18.987Z,9.50
2023-02-18T07:27:45.642Z,9.50
2023-02-18T07:30:12.784Z,9.50
2023-02-18T07:32:39.853Z,9.50
2023-02-18T07:35:07.187Z,9.50
2023-02-18T07:37:33.833Z,9.50
2023-02-18T07:40:00.458Z,9.50
2023-02-18T07:42:27.129Z,9.50
2023-02-18T07:44:53.691Z,9.50
2023-02-18T07:47:20.297Z,9.50
2023-02-18T07:49:47.226Z,9.50
2023-02-18T07:52:14.968Z,9.50
2023-02-18T07:54:41.754Z,9.50
2023-02-18T07:57:08.474Z,9.50
2023-02-18T07:59:35.299Z,9.50
2023-02-18T08:02:02.942Z,9.50
2023-02-18T08:04:29.731Z,9.40
2023-02-18T08:06:56.468Z,9.50
2023-02-18T08:09:23.079Z,9.50
2023-02-18T08:11:49.837Z,9.50
2023-02-18T08:14:16.501Z,9.40
2023-02-18T08:16:43.161Z,9.40
2023-02-18T08:19:09.870Z,9.40
2023-02-18T08:21:36.542Z,9.40
2023-02-18T08:24:03.322Z,9.40
2023-02-18T08:26:29.931Z,9.50
2023-02-18T08:28:56.571Z,9.50
2023-02-18T08:31:25.891Z,9.60
2023-02-18T08:33:54.613Z,9.70
2023-02-18T08:36:21.897Z,9.70
2023-02-18T08:38:48.916Z,9.70
2023-02-18T08:41:18.562Z,9.70
2023-02-18T08:43:45.358Z,9.70
2023-02-18T08:46:15.915Z,9.80
2023-02-18T08:48:44.425Z,9.80
2023-02-18T08:51:21.757Z,9.90
2023-02-18T08:53:49.538Z,9.90
2023-02-18T08:56:17.163Z,9.90
2023-02-18T08:58:44.283Z,9.90
2023-02-18T09:01:12.642Z,9.90
2023-02-18T09:03:39.742Z,9.90
2023-02-18T09:06:06.730Z,10.00
2023-02-18T09:08:33.365Z,9.90
2023-02-18T09:11:04.418Z,9.90
2023-02-18T09:13:32.517Z,9.90
2023-02-18T09:16:02.068Z,9.90
2023-02-18T09:18:28.816Z,9.90
2023-02-18T09:20:59.961Z,9.90
2023-02-18T09:23:28.553Z,10.00
2023-02-18T09:25:55.577Z,10.10
2023-02-18T09:28:22.896Z,10.10
2023-02-18T09:30:49.729Z,10.10
2023-02-18T09:33:16.889Z,10.10
2023-02-18T09:35:45.264Z,10.10
2023-02-18T09:38:14.022Z,10.10
2023-02-18T09:40:45.028Z,10.20
2023-02-18T09:43:43.781Z,10.20
2023-02-18T09:46:24.464Z,10.30
2023-02-18T09:48:52.692Z,10.30
2023-02-18T09:51:20.109Z,10.30
2023-02-18T09:53:46.979Z,10.30
2023-02-18T09:56:23.148Z,10.20
2023-02-18T09:58:51.773Z,10.20
2023-02-18T10:01:37.287Z,10.30
2023-02-18T10:04:12.977Z,10.30
2023-02-18T10:06:39.722Z,10.30
2023-02-18T10:09:29.607Z,10.40
2023-02-18T10:12:00.246Z,10.40
2023-02-18T10:14:26.882Z,10.40
2023-02-18T10:16:54.227Z,10.40
2023-02-18T10:19:37.553Z,10.50
2023-02-18T10:22:06.555Z,10.50
2023-02-18T10:24:40.888Z,10.60
2023-02-18T10:27:08.707Z,10.70
2023-02-18T10:29:36.213Z,10.80
2023-02-18T10:32:23.458Z,10.80
2023-02-18T10:35:20.456Z,10.80
2023-02-18T10:38:08.952Z,10.90
2023-02-18T10:41:08.466Z,10.90
2023-02-18T10:43:35.079Z,10.80
2023-02-18T10:46:33.267Z,10.80
2023-02-18T10:49:10.539Z,10.70
2023-02-18T10:51:48.310Z,10.70
2023-02-18T10:54:15.965Z,10.70
2023-02-18T10:56:48.734Z,10.80
2023-02-18T10:59:22.796Z,10.80
2023-02-18T11:01:58.686Z,10.70
2023-02-18T11:04:39.515Z,10.60
2023-02-18T11:07:13.933Z,10.60
2023-02-18T11:09:50.251Z,10.60
2023-02-18T11:12:30.162Z,10.60
2023-02-18T11:15:15.008Z,10.70
2023-02-18T11:17:44.092Z,10.90
2023-02-18T11:20:28.467Z,11.00
2023-02-18T11:23:07.199Z,11.20
2023-02-18T11:25:36.177Z,11.10
2023-02-18T11:28:25.037Z,11.10
2023-02-18T11:30:57.227Z,11.20
2023-02-18T11:33:33.258Z,11.10
2023-02-18T11:36:06.499Z,11.10
2023-02-18T11:38:44.870Z,11.10
2023-02-18T11:41:30.222Z,11.00
2023-02-18T11:43:57.700Z,11.00
2023-02-18T11:46:27.461Z,10.90
2023-02-18T11:48:55.273Z,10.90
2023-02-18T11:51:36.579Z,10.80
2023-02-18T11:54:04.955Z,10.80
2023-02-18T11:56:34.656Z,10.70
2023-02-18T11:59:02.413Z,10.70
2023-02-18T12:03:42.520Z,10.70
2023-02-18T12:06:43.019Z,10.70
2023-02-18T12:09:35.143Z,10.80
2023-02-18T12:12:06.858Z,10.80
2023-02-18T12:14:33.566Z,10.80
2023-02-18T12:17:29.290Z,10.80
2023-02-18T12:20:43.767Z,10.80
2023-02-18T12:23:19.681Z,10.80
2023-02-18T12:26:04.618Z,10.80
2023-02-18T12:28:55.879Z,10.80
2023-02-18T12:31:41.613Z,10.80
2023-02-18T12:34:36.139Z,10.70
2023-02-18T12:37:27.883Z,10.70
2023-02-18T12:40:26.041Z,10.70
2023-02-18T12:43:27.654Z,10.80
2023-02-18T12:46:11.565Z,10.80
2023-02-18T12:48:38.191Z,10.70
2023-02-18T12:51:19.979Z,10.80
2023-02-18T12:53:58.258Z,10.80
2023-02-18T12:56:32.920Z,10.70
2023-02-18T12:59:16.899Z,10.50
2023-02-18T13:02:15.508Z,10.40
2023-02-18T13:05:07.282Z,10.30
2023-02-18T13:08:05.008Z,10.10
2023-02-18T13:11:03.947Z,10.10
2023-02-18T13:13:46.672Z,10.10
2023-02-18T13:16:16.629Z,10.00
2023-02-18T13:19:07.478Z,10.00
2023-02-18T13:21:37.716Z,10.10
2023-02-18T13:24:13.943Z,10.10
2023-02-18T13:26:44.410Z,10.10
2023-02-18T13:29:24.730Z,10.10
2023-02-18T13:32:01.550Z,10.10
2023-02-18T13:34:49.338Z,10.20
2023-02-18T13:37:47.860Z,10.20
2023-02-18T13:40:20.991Z,10.20
2023-02-18T13:42:54.025Z,10.20
2023-02-18T13:45:31.089Z,10.20
2023-02-18T13:47:58.855Z,10.20
2023-02-18T13:50:27.413Z,10.20
2023-02-18T13:53:09.353Z,10.20
2023-02-18T13:55:51.241Z,10.20
2023-02-18T13:58:29.156Z,10.10
2023-02-18T14:01:05.543Z,10.00
2023-02-18T14:03:44.957Z,10.00
2023-02-18T14:06:17.566Z,9.90
2023-02-18T14:08:45.361Z,9.90
2023-02-18T14:11:12.000Z,9.80
2023-02-18T14:14:01.223Z,9.80
2023-02-18T14:17:06.087Z,9.80
2023-02-18T14:19:32.690Z,9.80
2023-02-18T14:22:45.504Z,9.80
2023-02-18T14:25:12.074Z,9.80
2023-02-18T14:27:40.934Z,9.70
2023-02-18T14:30:39.796Z,9.70
2023-02-18T14:33:06.814Z,9.70
2023-02-18T14:35:57.243Z,9.80
2023-02-18T14:38:59.940Z,9.80
2023-02-18T14:41:42.421Z,9.80
2023-02-18T14:44:27.926Z,9.80
2023-02-18T14:47:15.262Z,9.80
2023-02-18T14:49:49.582Z,9.80
2023-02-18T14:52:21.232Z,9.80
2023-02-18T14:54:49.156Z,9.80
2023-02-18T14:57:23.930Z,9.80
2023-02-18T14:59:58.785Z,9.80
2023-02-18T15:02:27.824Z,9.80
2023-02-18T15:04:54.838Z,9.80
2023-02-18T15:07:22.664Z,9.90
2023-02-18T15:09:55.801Z,9.90
2023-02-18T15:12:25.753Z,9.80
2023-02-18T15:14:54.347Z,9.80
2023-02-18T15:17:27.255Z,9.80
2023-02-18T15:19:59.942Z,9.80
2023-02-18T15:22:31.597Z,9.80
2023-02-18T15:24:58.343Z,9.90
2023-02-18T15:27:30.288Z,9.90
2023-02-18T15:30:19.485Z,9.80
2023-02-18T15:32:54.252Z,9.90
2023-02-18T15:35:23.479Z,9.90
2023-02-18T15:37:55.375Z,9.90
2023-02-18T15:40:25.047Z,9.90
2023-02-18T15:42:52.938Z,9.90
2023-02-18T15:45:23.143Z,9.90
2023-02-18T15:47:59.959Z,10.00
2023-02-18T15:50:31.766Z,10.00
2023-02-18T15:53:04.050Z,10.00
2023-02-18T15:55:35.339Z,10.00
2023-02-18T15:58:04.491Z,10.00
2023-02-18T16:00:36.798Z,10.00
2023-02-18T16:03:12.849Z,10.00
2023-02-18T16:05:42.138Z,10.00
2023-02-18T16:08:27.117Z,10.00
2023-02-18T16:11:03.210Z,9.90
2023-02-18T16:13:31.332Z,9.90
2023-02-18T16:16:00.830Z,9.90
2023-02-18T16:18:31.213Z,9.90
2023-02-18T16:21:03.039Z,9.90
2023-02-18T16:23:45.100Z,9.90
2023-02-18T16:26:22.327Z,9.90
2023-02-18T16:28:51.784Z,10.00
2023-02-18T16:31:19.970Z,9.90
2023-02-18T16:33:47.216Z,9.90
2023-02-18T16:36:18.007Z,9.90
2023-02-18T16:38:46.042Z,9.90
2023-02-18T16:41:14.256Z,9.90
2023-02-18T16:43:41.436Z,9.90
2023-02-18T16:46:17.871Z,9.90
2023-02-18T16:48:48.820Z,9.90
2023-02-18T16:51:25.043Z,9.90
2023-02-18T16:53:52.142Z,9.80
2023-02-18T16:56:24.361Z,9.80
2023-02-18T16:58:51.807Z,9.80
2023-02-18T17:01:38.227Z,9.80
2023-02-18T17:04:06.065Z,9.80
2023-02-18T17:06:33.303Z,9.90
2023-02-18T17:09:00.385Z,9.80
2023-02-18T17:11:35.168Z,9.80
2023-02-18T17:14:04.910Z,9.80
2023-02-18T17:16:31.672Z,9.80
2023-02-18T17:18:58.315Z,9.80
2023-02-18T17:21:25.777Z,9.90
2023-02-18T17:23:52.774Z,9.80
2023-02-18T17:26:30.630Z,9.90
2023-02-18T17:28:59.314Z,9.80
2023-02-18T17:31:33.785Z,9.80
2023-02-18T17:34:04.874Z,9.80
2023-02-18T17:36:31.699Z,9.80
2023-02-18T17:39:00.071Z,9.80
2023-02-18T17:41:28.156Z,9.80
2023-02-18T17:43:54.782Z,9.80
2023-02-18T17:46:22.108Z,9.80
2023-02-18T17:48:48.860Z,9.80
2023-02-18T17:51:38.192Z,9.80
2023-02-18T17:54:16.464Z,9.80
2023-02-18T17:56:43.455Z,9.80
2023-02-18T17:59:10.264Z,9.80
2023-02-18T18:01:36.942Z,9.80
2023-02-18T18:04:03.994Z,9.70
2023-02-18T18:06:30.800Z,9.70
2023-02-18T18:08:57.426Z,9.70
2023-02-18T18:11:25.308Z,9.70
2023-02-18T18:13:55.409Z,9.80
2023-02-18T18:16:22.281Z,9.80
2023-02-18T18:18:49.012Z,9.80
2023-02-18T18:21:31.830Z,9.70
2023-02-18T18:23:58.732Z,9.70
2023-02-18T18:26:25.539Z,9.70
2023-02-18T18:28:53.376Z,9.70
2023-02-18T18:31:21.060Z,9.70
2023-02-18T18:33:51.399Z,9.70
2023-02-18T18:36:19.856Z,9.70
2023-02-18T18:38:46.537Z,9.70
2023-02-18T18:41:14.830Z,9.70
2023-02-18T18:43:41.524Z,9.70
2023-02-18T18:46:08.399Z,9.70
2023-02-18T18:48:35.082Z,9.60
2023-02-18T18:51:02.402Z,9.70
2023-02-18T18:53:32.528Z,9.70
2023-02-18T18:56:04.711Z,9.70
2023-02-18T18:58:31.591Z,9.70
2023-02-18T19:01:04.050Z,9.70
2023-02-18T19:03:31.512Z,9.70
2023-02-18T19:05:58.335Z,9.70
2023-02-18T19:08:25.075Z,9.70
2023-02-18T19:10:54.571Z,9.60
2023-02-18T19:13:24.568Z,9.60
2023-02-18T19:16:12.921Z,9.60
2023-02-18T19:18:39.552Z,9.70
2023-02-18T19:21:06.417Z,9.60
2023-02-18T19:23:34.048Z,9.60
2023-02-18T19:26:00.898Z,9.60
2023-02-18T19:28:27.939Z,9.60
2023-02-18T19:30:54.664Z,9.60
2023-02-18T19:33:21.373Z,9.50
2023-02-18T19:35:48.137Z,9.60
2023-02-18T19:38:17.016Z,9.50
2023-02-18T19:40:44.339Z,9.50
2023-02-18T19:43:11.791Z,9.50
2023-02-18T19:45:47.045Z,9.50
2023-02-18T19:48:15.147Z,9.50
2023-02-18T19:50:43.214Z,9.50
2023-02-18T19:53:10.773Z,9.40
2023-02-18T19:55:37.650Z,9.40
2023-02-18T19:58:04.495Z,9.40
2023-02-18T20:00:31.304Z,9.40
2023-02-18T20:02:58.252Z,9.30
2023-02-18T20:05:24.982Z,9.30
2023-02-18T20:07:51.600Z,9.40
2023-02-18T20:10:22.708Z,9.30
2023-02-18T20:12:54.053Z,9.30
2023-02-18T20:15:21.607Z,9.30
2023-02-18T20:17:48.714Z,9.20
2023-02-18T20:20:15.735Z,9.20
2023-02-18T20:22:42.341Z,9.10
2023-02-18T20:25:09.050Z,9.10
2023-02-18T20:27:37.579Z,9.10
2023-02-18T20:30:08.018Z,9.10
2023-02-18T20:32:35.609Z,9.00
2023-02-18T20:35:02.975Z,9.00
2023-02-18T20:37:29.952Z,9.00
2023-02-18T20:39:56.702Z,9.00
2023-02-18T20:42:23.518Z,9.00
2023-02-18T20:44:51.672Z,9.00
2023-02-18T20:47:18.286Z,8.90
2023-02-18T20:49:46.619Z,8.90
2023-02-18T20:52:13.609Z,8.90
2023-02-18T20:54:40.245Z,8.90
2023-02-18T20:57:08.807Z,8.90
2023-02-18T20:59:35.769Z,8.90
2023-02-18T21:02:02.887Z,8.90
2023-02-18T21:04:29.579Z,9.00
2023-02-18T21:06:56.335Z,9.00
2023-02-18T21:09:23.070Z,9.00
2023-02-18T21:11:49.728Z,9.00
2023-02-18T21:14:16.576Z,9.00
2023-02-18T21:16:43.415Z,9.00
2023-02-18T21:19:15.550Z,9.00
2023-02-18T21:21:43.519Z,9.00
2023-02-18T21:24:10.874Z,9.10
2023-02-18T21:26:38.137Z,9.00
2023-02-18T21:29:07.903Z,9.10
2023-02-18T21:31:39.681Z,9.10
2023-02-18T21:34:08.001Z,9.10
2023-02-18T21:36:34.735Z,9.10
2023-02-18T21:39:07.288Z,9.20
2023-02-18T21:41:35.054Z,9.20
2023-02-18T21:44:01.951Z,9.20
2023-02-18T21:46:31.216Z,9.20
2023-02-18T21:49:09.645Z,9.20
2023-02-18T21:51:56.747Z,9.20
2023-02-18T21:54:26.728Z,9.30
2023-02-18T21:56:54.852Z,9.30
2023-02-18T21:59:23.737Z,9.20
2023-02-18T22:01:50.544Z,9.20
2023-02-18T22:04:17.350Z,9.30
2023-02-18T22:06:44.371Z,9.30
2023-02-18T22:09:12.280Z,9.40
2023-02-18T22:11:41.891Z,9.40
2023-02-18T22:14:13.083Z,9.30
2023-02-18T22:16:40.504Z,9.30
2023-02-18T22:19:07.697Z,9.30
2023-02-18T22:21:34.340Z,9.30
2023-02-18T22:24:01.234Z,9.30
2023-02-18T22:26:27.908Z,9.30
2023-02-18T22:28:56.434Z,9.30
2023-02-18T22:31:24.952Z,9.30
2023-02-18T22:33:53.516Z,9.20
2023-02-18T22:36:21.995Z,9.30
2023-02-18T22:38:49.124Z,9.30
2023-02-18T22:41:18.405Z,9.30
2023-02-18T22:43:45.345Z,9.30
2023-02-18T22:46:15.561Z,9.30
2023-02-18T22:48:43.241Z,9.30
2023-02-18T22:51:16.001Z,9.30
2023-02-18T22:53:43.813Z,9.30
2023-02-18T22:56:13.893Z,9.30
2023-02-18T22:58:41.745Z,9.30
2023-02-18T23:01:17.661Z,9.30
2023-02-18T23:03:44.309Z,9.30
2023-02-18T23:06:10.979Z,9.30
2023-02-18T23:08:37.601Z,9.20
2023-02-18T23:11:08.210Z,9.20
2023-02-18T23:13:35.172Z,9.20
2023-02-18T23:16:05.522Z,9.20
2023-02-18T23:18:34.465Z,9.20
2023-02-18T23:21:21.253Z,9.20
2023-02-18T23:23:52.276Z,9.20
2023-02-18T23:26:20.819Z,9.20
2023-02-18T23:28:47.840Z,9.20
2023-02-18T23:31:25.225Z,9.20
2023-02-18T23:33:59.718Z,9.20
2023-02-18T23:36:28.759Z,9.20
2023-02-18T23:39:00.072Z,9.20
2023-02-18T23:41:28.715Z,9.20
2023-02-18T23:43:56.308Z,9.20
2023-02-18T23:46:25.408Z,9.20
2023-02-18T23:48:52.154Z,9.10
2023-02-18T23:51:20.854Z,9.10
2023-02-18T23:53:47.579Z,9.10
2023-02-18T23:56:25.075Z,9.10
2023-02-18T23:58:57.490Z,9.10
